Time;durP1;ratioP1;P1;durP2;ratioP2;P2;SDS_P1;SDS_P2;PMS_P1;PMS_P2;Temp;Humidity;BMP_temperature;BMP_pressure;BME280_temperature;BME280_humidity;BME280_pressure;Samples;Min_cycle;Max_cycle;Signal;HPM_P1;HPM_P2
2021/10/20 00:00:39;;;;;;;6.07;4.60;;;10.00;99.90;;;10.89;100.00;98267.66;5017769;28;20985;-74
2021/10/20 00:03:08;;;;;;;10.03;4.60;;;10.00;99.90;;;10.87;100.00;98267.03;5050138;28;20499;-74
2021/10/20 00:05:38;;;;;;;8.00;4.40;;;10.00;99.90;;;10.88;100.00;98273.88;5044663;28;20457;-74
2021/10/20 00:08:08;;;;;;;6.40;4.13;;;10.00;99.90;;;10.85;100.00;98269.84;5047928;28;20945;-74
2021/10/20 00:10:37;;;;;;;13.70;5.13;;;9.90;99.90;;;10.87;100.00;98272.25;5030093;28;20985;-74
2021/10/20 00:13:07;;;;;;;6.10;4.70;;;9.90;99.90;;;10.86;100.00;98266.25;5040028;28;20562;-74
2021/10/20 00:15:36;;;;;;;6.50;4.87;;;10.00;99.90;;;10.88;100.00;98263.44;5041170;28;20461;-74
2021/10/20 00:18:04;;;;;;;8.00;5.00;;;10.00;99.90;;;10.89;100.00;98259.81;5041649;28;20897;-74
2021/10/20 00:20:33;;;;;;;8.37;3.90;;;10.00;99.90;;;10.89;100.00;98259.81;5044865;28;20512;-74
2021/10/20 00:23:03;;;;;;;8.50;4.60;;;10.00;99.90;;;10.82;100.00;98261.56;5034319;28;20462;-74
2021/10/20 00:25:32;;;;;;;8.33;4.90;;;10.00;99.90;;;10.80;100.00;98250.44;5041133;28;20543;-74
2021/10/20 00:28:00;;;;;;;9.30;4.40;;;9.90;99.90;;;10.80;100.00;98253.06;5044707;28;20481;-74
2021/10/20 00:30:29;;;;;;;6.67;3.93;;;10.00;99.90;;;10.81;100.00;98258.13;5047740;28;20453;-74
2021/10/20 00:32:57;;;;;;;10.90;5.07;;;10.10;99.90;;;10.80;100.00;98251.25;5044863;28;20457;-74
2021/10/20 00:35:27;;;;;;;16.57;5.30;;;10.00;99.90;;;10.81;100.00;98258.13;5042933;28;20496;-74
2021/10/20 00:37:56;;;;;;;9.17;4.60;;;10.10;99.90;;;10.78;100.00;98252.44;5043592;28;20486;-74
2021/10/20 00:40:25;;;;;;;5.67;3.50;;;10.00;99.90;;;10.74;100.00;98254.59;5041990;28;20472;-74
2021/10/20 00:42:54;;;;;;;8.40;4.63;;;9.90;99.90;;;10.73;100.00;98244.31;5051518;28;20487;-74
2021/10/20 00:45:22;;;;;;;5.67;4.43;;;9.80;99.90;;;10.72;100.00;98242.72;5047116;28;20477;-74
2021/10/20 00:47:51;;;;;;;6.97;4.20;;;9.80;99.90;;;10.60;100.00;98239.75;5037593;28;20477;-74
2021/10/20 00:50:19;;;;;;;5.93;4.00;;;9.70;99.90;;;10.64;100.00;98237.59;5039945;28;20866;-74
2021/10/20 00:52:48;;;;;;;6.97;4.73;;;9.80;99.90;;;10.63;100.00;98228.09;5047511;28;20499;-74
2021/10/20 00:55:16;;;;;;;10.83;4.80;;;9.80;99.90;;;10.58;100.00;98232.09;5054676;28;20499;-74
2021/10/20 00:57:48;;;;;;;8.73;5.30;;;9.70;99.90;;;10.57;100.00;98227.84;5049213;28;20555;-74
2021/10/20 01:00:18;;;;;;;8.60;4.70;;;9.70;99.90;;;10.55;100.00;98221.19;5046542;28;21048;-74
2021/10/20 01:02:47;;;;;;;10.67;4.20;;;9.70;99.90;;;10.56;100.00;98218.38;5050505;28;20480;-74
2021/10/20 01:05:17;;;;;;;12.80;4.83;;;9.70;99.90;;;10.57;100.00;98230.47;5047985;28;20472;-74
2021/10/20 01:07:46;;;;;;;7.53;4.33;;;9.70;99.90;;;10.50;100.00;98219.13;5054966;28;20473;-74
2021/10/20 01:10:15;;;;;;;15.23;4.60;;;9.60;99.90;;;10.54;100.00;98209.94;5048657;28;20510;-74
2021/10/20 01:12:48;;;;;;;7.77;4.70;;;9.60;99.90;;;10.50;100.00;98198.19;5050041;28;21006;-74
2021/10/20 01:15:21;;;;;;;7.43;4.80;;;9.60;99.90;;;10.47;100.00;98195.97;5052348;28;20554;-74
2021/10/20 01:17:51;;;;;;;5.97;4.27;;;9.60;99.90;;;10.41;100.00;98194.03;5049953;28;20485;-74
2021/10/20 01:20:24;;;;;;;9.67;4.20;;;9.40;99.90;;;10.30;100.00;98191.91;5049536;28;20526;-74
2021/10/20 01:22:54;;;;;;;6.37;4.40;;;9.40;99.90;;;10.38;100.00;98201.44;5043168;28;20457;-74
2021/10/20 01:25:23;;;;;;;8.03;4.90;;;9.50;99.90;;;10.42;100.00;98195.69;5046927;28;20465;-74
2021/10/20 01:27:51;;;;;;;10.77;5.27;;;9.50;99.90;;;10.42;100.00;98190.44;5047568;28;20489;-74
2021/10/20 01:30:19;;;;;;;8.70;4.40;;;9.50;99.90;;;10.40;100.00;98171.53;5046253;28;20465;-74
2021/10/20 01:32:48;;;;;;;11.30;4.53;;;9.50;99.90;;;10.37;100.00;98168.47;5049738;28;20461;-74
2021/10/20 01:35:17;;;;;;;15.57;4.30;;;9.50;99.90;;;10.38;100.00;98165.66;5048316;28;21203;-74
2021/10/20 01:37:46;;;;;;;7.93;3.80;;;9.60;99.90;;;10.42;100.00;98159.09;5044137;28;20719;-74
2021/10/20 01:40:15;;;;;;;9.03;4.43;;;9.70;99.90;;;10.45;100.00;98163.13;5041127;28;20959;-74
2021/10/20 01:42:44;;;;;;;7.07;4.30;;;9.60;99.90;;;10.36;100.00;98149.38;5052633;28;20461;-74
2021/10/20 01:45:14;;;;;;;7.57;5.30;;;9.50;99.90;;;10.41;100.00;98149.59;5048366;28;20464;-74
2021/10/20 01:47:43;;;;;;;7.10;4.87;;;9.60;99.90;;;10.36;100.00;98140.72;5047532;28;20473;-74
2021/10/20 01:50:15;;;;;;;6.03;4.10;;;9.50;99.90;;;10.36;100.00;98131.06;5054207;28;20453;-74
2021/10/20 01:52:44;;;;;;;12.20;4.70;;;9.60;99.90;;;10.33;100.00;98133.22;5047544;28;20491;-74
2021/10/20 01:55:13;;;;;;;11.40;4.27;;;9.50;99.90;;;10.29;100.00;98132.78;5047870;28;20500;-74
2021/10/20 01:57:46;;;;;;;6.40;4.77;;;9.50;99.90;;;10.30;100.00;98123.97;5045246;28;20543;-74
2021/10/20 02:00:15;;;;;;;8.87;4.63;;;9.40;99.90;;;10.25;100.00;98122.88;5046007;28;20480;-74
2021/10/20 02:02:44;;;;;;;10.77;4.73;;;9.30;99.90;;;10.26;100.00;98116.66;5046855;28;20523;-74
2021/10/20 02:05:16;;;;;;;9.47;4.90;;;9.30;99.90;;;10.25;100.00;98115.84;5046342;28;20955;-74
2021/10/20 02:07:44;;;;;;;5.60;4.30;;;9.30;99.90;;;10.26;100.00;98104.41;5045718;28;20462;-74
2021/10/20 02:10:16;;;;;;;8.63;4.70;;;9.30;99.90;;;10.25;100.00;98101.97;5044081;28;20465;-74
2021/10/20 02:12:45;;;;;;;8.57;4.47;;;9.30;99.90;;;10.24;100.00;98103.78;5045690;28;20519;-74
2021/10/20 02:15:14;;;;;;;10.83;4.43;;;9.30;99.90;;;10.23;100.00;98099.56;5045560;28;20524;-74
2021/10/20 02:17:42;;;;;;;8.43;4.40;;;9.30;99.90;;;10.18;100.00;98085.41;5048883;28;21000;-74
2021/10/20 02:20:14;;;;;;;8.00;5.17;;;9.30;99.90;;;10.21;100.00;98088.47;5042606;28;20469;-74
2021/10/20 02:22:44;;;;;;;14.53;4.67;;;9.30;99.90;;;10.21;100.00;98088.47;5040839;28;20960;-74
2021/10/20 02:25:13;;;;;;;6.63;4.37;;;9.30;99.90;;;10.20;100.00;98080.81;5045479;28;20523;-74
2021/10/20 02:27:42;;;;;;;7.83;4.30;;;9.30;99.90;;;10.13;100.00;98075.50;5042336;28;21054;-74
2021/10/20 02:30:13;;;;;;;9.53;5.07;;;9.20;99.90;;;10.19;100.00;98080.00;5044819;28;20523;-74
2021/10/20 02:32:42;;;;;;;8.90;4.40;;;9.30;99.90;;;10.15;100.00;98073.53;5040466;28;20489;-74
2021/10/20 02:35:12;;;;;;;12.80;4.17;;;9.30;99.90;;;10.18;100.00;98083.59;5046158;28;20524;-74
2021/10/20 02:37:41;;;;;;;6.53;4.23;;;9.30;99.90;;;10.14;100.00;98074.50;5046301;28;20485;-74
2021/10/20 02:40:11;;;;;;;10.77;5.07;;;9.20;99.90;;;10.05;100.00;98068.56;5047116;28;20503;-74
2021/10/20 02:42:40;;;;;;;8.33;4.30;;;9.10;99.90;;;10.04;100.00;98071.34;5046158;28;20828;-74
2021/10/20 02:45:15;;;;;;;8.57;4.90;;;9.10;99.90;;;10.10;100.00;98076.66;5041239;28;21268;-74
2021/10/20 02:47:44;;;;;;;6.03;4.40;;;9.20;99.90;;;10.11;100.00;98077.47;5056072;28;21002;-74
2021/10/20 02:50:13;;;;;;;6.93;3.73;;;9.20;99.90;;;10.16;100.00;98069.09;5046390;28;20558;-73
2021/10/20 02:52:41;;;;;;;8.80;4.47;;;9.30;99.90;;;10.17;100.00;98061.06;5043418;28;20976;-73
2021/10/20 02:55:11;;;;;;;5.63;4.10;;;9.30;99.90;;;10.18;100.00;98062.69;5046480;28;20590;-73
2021/10/20 02:57:39;;;;;;;8.73;4.53;;;9.30;99.90;;;10.18;100.00;98065.31;5045321;28;21512;-75
2021/10/20 03:00:09;;;;;;;15.30;5.77;;;9.30;99.90;;;10.19;100.00;98066.13;5045003;28;20821;-74
2021/10/20 03:02:39;;;;;;;6.20;3.60;;;9.30;99.90;;;10.16;100.00;98062.09;5048499;28;20484;-73
2021/10/20 03:05:09;;;;;;;8.23;4.00;;;9.30;99.90;;;10.15;100.00;98062.25;5043352;28;20455;-73
2021/10/20 03:07:37;;;;;;;6.60;3.80;;;9.30;99.90;;;10.15;100.00;98063.06;5048581;28;20515;-73
2021/10/20 03:10:07;;;;;;;7.63;4.60;;;9.30;99.90;;;10.15;100.00;98068.28;5048194;28;20453;-83
2021/10/20 03:12:35;;;;;;;13.03;7.17;;;9.30;99.90;;;10.13;100.00;98054.59;5043391;28;20460;-74
2021/10/20 03:15:04;;;;;;;6.67;4.37;;;9.40;99.90;;;10.15;100.00;98047.41;5046226;28;20527;-73
2021/10/20 03:17:33;;;;;;;10.67;4.90;;;9.30;99.90;;;10.13;100.00;98054.59;5041537;28;20529;-74
2021/10/20 03:20:03;;;;;;;11.10;6.30;;;9.30;99.90;;;10.14;100.00;98051.00;5045586;28;20484;-79
2021/10/20 03:22:33;;;;;;;10.23;5.17;;;9.30;99.90;;;10.16;100.00;98046.41;5043620;28;20461;-73
2021/10/20 03:25:01;;;;;;;6.20;4.83;;;9.30;99.90;;;10.15;100.00;98054.41;5044702;28;20460;-73
2021/10/20 03:27:29;;;;;;;6.60;4.93;;;9.30;99.90;;;10.15;100.00;98052.63;5048732;28;20484;-74
2021/10/20 03:29:58;;;;;;;6.30;4.70;;;9.30;99.90;;;10.13;100.00;98050.16;5046607;28;20484;-73
2021/10/20 03:32:26;;;;;;;8.07;4.70;;;9.30;99.90;;;10.13;100.00;98054.59;5047086;28;20504;-73
2021/10/20 03:35:07;;;;;;;8.10;4.83;;;9.30;99.90;;;10.14;100.00;98056.22;5047131;28;20499;-75
2021/10/20 03:37:38;;;;;;;9.77;5.43;;;9.30;99.90;;;10.12;100.00;98042.50;5053737;28;20449;-72
2021/10/20 03:40:08;;;;;;;9.30;4.90;;;9.20;99.90;;;10.09;100.00;98038.47;5046285;28;20965;-74
2021/10/20 03:42:38;;;;;;;7.53;5.00;;;9.20;99.90;;;10.12;100.00;98037.28;5038536;28;20499;-75
2021/10/20 03:45:08;;;;;;;6.00;4.67;;;9.30;99.90;;;10.13;100.00;98031.84;5052168;28;20452;-75
2021/10/20 03:47:36;;;;;;;14.03;5.10;;;9.30;99.90;;;10.14;100.00;98030.09;5046180;28;20499;-75
2021/10/20 03:50:08;;;;;;;6.10;3.73;;;9.30;99.90;;;10.12;100.00;98039.91;5046856;28;20502;-75
2021/10/20 03:52:37;;;;;;;5.50;4.23;;;9.30;99.90;;;10.13;100.00;98038.91;5043832;28;20941;-75
2021/10/20 03:55:07;;;;;;;6.90;4.77;;;9.30;99.90;;;10.12;100.00;98047.72;5047626;28;20546;-75
2021/10/20 03:57:44;;;;;;;10.80;5.50;;;9.30;99.90;;;10.11;100.00;98046.09;5045874;28;20945;-73
2021/10/20 04:00:18;;;;;;;8.63;5.40;;;9.30;99.90;;;10.13;100.00;98043.31;5039091;28;20489;-73
2021/10/20 04:02:47;;;;;;;14.90;5.43;;;9.30;99.90;;;10.09;100.00;98048.09;5046522;28;20538;-74
2021/10/20 04:05:19;;;;;;;8.63;5.00;;;9.30;99.90;;;10.09;100.00;98053.31;5043843;28;20976;-74
2021/10/20 04:07:50;;;;;;;8.27;5.20;;;9.30;99.90;;;10.10;100.00;98042.69;5047108;28;20465;-74
2021/10/20 04:10:21;;;;;;;7.53;5.23;;;9.30;99.90;;;10.13;100.00;98057.19;5047869;28;20529;-74
2021/10/20 04:12:51;;;;;;;6.73;4.73;;;9.30;99.90;;;10.10;100.00;98045.28;5051572;28;20514;-74
2021/10/20 04:15:23;;;;;;;11.93;5.00;;;9.30;99.90;;;10.12;100.00;98042.50;5043405;28;20524;-74
2021/10/20 04:17:51;;;;;;;7.40;5.10;;;9.30;99.90;;;10.10;100.00;98044.47;5043278;28;20515;-73
2021/10/20 04:20:24;;;;;;;12.53;8.50;;;9.30;99.90;;;10.09;100.00;98048.09;5042698;28;20495;-78
2021/10/20 04:22:54;;;;;;;9.73;5.67;;;9.30;99.90;;;10.09;100.00;98040.25;5044937;28;20461;-73
2021/10/20 04:25:23;;;;;;;10.13;4.83;;;9.30;99.90;;;10.07;100.00;98037.00;5044134;28;20469;-73
2021/10/20 04:27:53;;;;;;;7.80;5.40;;;9.20;99.90;;;10.05;100.00;98045.03;5045574;28;20465;-73
2021/10/20 04:30:23;;;;;;;8.07;5.20;;;9.20;99.90;;;10.01;100.00;98048.19;5055060;28;20527;-73
2021/10/20 04:32:51;;;;;;;6.60;4.83;;;9.20;99.90;;;9.99;100.00;98037.13;5054246;28;20457;-73
2021/10/20 04:35:23;;;;;;;15.43;6.63;;;9.10;99.90;;;9.99;100.00;98037.13;5053696;28;20500;-73
2021/10/20 04:37:51;;;;;;;8.97;5.37;;;9.20;99.90;;;9.94;100.00;98029.84;5053720;28;20460;-73
2021/10/20 04:40:20;;;;;;;6.23;4.70;;;9.10;99.90;;;9.93;100.00;98030.00;5045485;28;20445;-73
2021/10/20 04:42:48;;;;;;;7.03;5.23;;;9.10;99.90;;;9.91;100.00;98011.13;5053732;28;20479;-73
2021/10/20 04:45:17;;;;;;;6.73;5.00;;;9.10;99.90;;;9.89;100.00;98010.50;5054238;28;20445;-73
2021/10/20 04:47:45;;;;;;;10.00;5.37;;;9.00;99.90;;;9.86;100.00;98001.22;5053724;28;20445;-73
2021/10/20 04:50:13;;;;;;;7.73;5.43;;;9.00;99.90;;;9.85;100.00;97997.00;5054111;28;20453;-73
2021/10/20 04:52:43;;;;;;;9.30;6.50;;;9.00;99.90;;;9.84;100.00;97991.94;5053752;28;20453;-73
2021/10/20 04:55:12;;;;;;;20.70;6.20;;;8.90;99.90;;;9.87;100.00;97995.00;5053121;28;20452;-73
2021/10/20 04:57:40;;;;;;;11.33;5.37;;;9.00;99.90;;;9.80;100.00;97995.91;5053358;28;20441;-74
2021/10/20 05:00:11;;;;;;;17.27;6.17;;;8.90;99.90;;;9.81;100.00;97985.28;5053407;28;20981;-73
2021/10/20 05:02:39;;;;;;;6.73;5.30;;;8.90;99.90;;;9.80;100.00;97980.25;5033901;28;20483;-73
2021/10/20 05:05:09;;;;;;;6.80;5.43;;;8.90;99.90;;;9.77;100.00;97970.16;5027999;28;20503;-73
2021/10/20 05:07:49;;;;;;;7.17;5.20;;;8.90;99.90;;;9.75;100.00;97957.31;5044015;28;20450;-73
2021/10/20 05:10:19;;;;;;;11.60;5.90;;;8.90;99.90;;;9.71;100.00;97952.63;5019310;28;20450;-73
2021/10/20 05:12:47;;;;;;;23.63;5.60;;;8.80;99.90;;;9.73;100.00;97948.84;5032846;28;20446;-73
2021/10/20 05:15:17;;;;;;;14.97;6.20;;;8.80;99.90;;;9.76;100.00;97947.66;5030876;28;20938;-73
2021/10/20 05:17:46;;;;;;;14.23;6.33;;;8.90;99.90;;;9.77;100.00;97955.31;5037285;28;21059;-73
2021/10/20 05:20:17;;;;;;;8.80;6.10;;;8.90;99.90;;;9.80;100.00;97967.19;5029869;28;20450;-73
2021/10/20 05:22:48;;;;;;;7.43;6.03;;;9.00;99.90;;;9.83;100.00;97953.75;5031997;28;20926;-73
2021/10/20 05:25:19;;;;;;;11.60;5.83;;;9.00;99.90;;;9.83;100.00;97957.19;5028074;28;20450;-73
2021/10/20 05:27:51;;;;;;;9.97;5.87;;;9.00;99.90;;;9.83;100.00;97965.00;5029491;28;20446;-73
2021/10/20 05:30:20;;;;;;;7.37;5.80;;;9.00;99.90;;;9.87;100.00;97970.69;5030354;28;20451;-73
2021/10/20 05:32:48;;;;;;;12.67;7.10;;;9.00;99.90;;;9.91;100.00;97966.72;5029849;28;20458;-73
2021/10/20 05:35:19;;;;;;;10.97;6.53;;;9.20;99.90;;;9.94;100.00;97963.72;5028294;28;20987;-73
2021/10/20 05:37:51;;;;;;;10.73;6.33;;;9.20;99.90;;;9.98;100.00;97955.34;5027323;28;20628;-73
2021/10/20 05:40:22;;;;;;;8.97;6.43;;;9.20;99.90;;;10.03;100.00;97952.97;5020007;28;20931;-73
2021/10/20 05:42:52;;;;;;;12.17;6.80;;;9.30;99.90;;;10.05;100.00;97942.34;5025667;28;20450;-73
2021/10/20 05:45:20;;;;;;;10.73;6.70;;;9.30;99.90;;;10.10;100.00;97939.97;5032228;28;20523;-73
2021/10/20 05:47:49;;;;;;;8.70;6.53;;;9.40;99.90;;;10.13;100.00;97936.19;5023790;28;20934;-73
2021/10/20 05:50:18;;;;;;;11.43;6.23;;;9.40;99.90;;;10.17;100.00;97934.88;5018614;28;20541;-73
2021/10/20 05:52:47;;;;;;;20.33;7.50;;;9.40;99.90;;;10.19;100.00;97930.25;5032250;28;20919;-73
2021/10/20 05:55:16;;;;;;;11.87;6.47;;;9.40;99.90;;;10.21;100.00;97929.06;5029735;28;20457;-74
2021/10/20 05:57:45;;;;;;;10.10;6.70;;;9.40;99.90;;;10.23;100.00;97927.09;5031760;28;21039;-73
2021/10/20 06:00:15;;;;;;;14.33;8.10;;;9.50;99.90;;;10.27;100.00;97919.69;5031955;28;20998;-73
2021/10/20 06:02:43;;;;;;;18.17;6.90;;;9.50;99.90;;;10.27;100.00;97912.66;5037554;28;20970;-73
2021/10/20 06:05:12;;;;;;;9.30;6.77;;;9.50;99.90;;;10.31;100.00;97900.78;5047029;28;20461;-74
2021/10/20 06:07:43;;;;;;;8.77;6.30;;;9.60;99.90;;;10.34;100.00;97894.41;5052048;28;21003;-73
2021/10/20 06:10:14;;;;;;;14.40;7.63;;;9.60;99.90;;;10.35;100.00;97896.81;5047306;28;20450;-73
2021/10/20 06:12:44;;;;;;;11.27;6.97;;;9.60;99.90;;;10.38;100.00;97885.16;5041335;28;20525;-74
2021/10/20 06:15:15;;;;;;;14.80;6.70;;;9.60;99.90;;;10.40;100.00;97889.22;5048034;28;20467;-73
2021/10/20 06:18:04;;;;;;;11.13;6.90;;;9.70;99.90;;;10.43;100.00;97894.06;5046057;28;20509;-74
2021/10/20 06:20:33;;;;;;;10.33;6.83;;;9.70;99.90;;;10.46;100.00;97903.34;5045489;28;20534;-73
2021/10/20 06:23:02;;;;;;;13.73;6.60;;;9.80;99.90;;;10.48;100.00;97898.75;5050153;28;20515;-73
2021/10/20 06:25:33;;;;;;;12.40;7.03;;;9.80;99.90;;;10.50;100.00;97894.94;5035244;28;20448;-73
2021/10/20 06:28:01;;;;;;;10.27;6.87;;;9.80;99.90;;;10.53;100.00;97891.94;5045524;28;20488;-73
2021/10/20 06:30:30;;;;;;;20.63;6.87;;;9.80;99.90;;;10.56;100.00;97899.41;5045416;28;20453;-73
2021/10/20 06:32:59;;;;;;;17.93;7.80;;;9.80;99.90;;;10.58;100.00;97900.03;5039749;28;20931;-73
2021/10/20 06:35:27;;;;;;;9.83;7.57;;;9.90;99.90;;;10.63;100.00;97909.91;5054325;28;20781;-73
2021/10/20 06:37:56;;;;;;;13.97;6.70;;;9.90;99.90;;;10.68;100.00;97904.09;5045868;28;20557;-74
2021/10/20 06:40:26;;;;;;;13.87;7.83;;;10.00;99.90;;;10.70;100.00;97902.91;5044187;28;21014;-73
2021/10/20 06:42:56;;;;;;;11.40;7.83;;;10.00;99.90;;;10.76;100.00;97909.97;5055044;28;20453;-73
2021/10/20 06:45:24;;;;;;;10.60;7.63;;;10.00;99.90;;;10.79;100.00;97909.63;5050117;28;20941;-74
2021/10/20 06:47:53;;;;;;;13.70;8.10;;;10.10;99.90;;;10.85;100.00;97913.28;5042451;28;20449;-73
2021/10/20 06:50:22;;;;;;;15.83;7.70;;;10.20;99.90;;;10.89;100.00;97919.75;5054515;28;20460;-74
2021/10/20 06:52:51;;;;;;;16.13;9.07;;;10.20;99.90;;;10.94;100.00;97912.91;5047886;28;20504;-73
2021/10/20 06:55:19;;;;;;;16.17;8.00;;;10.30;99.90;;;10.99;100.00;97907.94;5045728;28;20510;-74
2021/10/20 06:57:48;;;;;;;13.47;8.87;;;10.40;99.90;;;11.07;100.00;97906.97;5045390;28;20544;-73
2021/10/20 07:00:18;;;;;;;10.93;8.50;;;10.50;99.90;;;11.12;100.00;97907.19;5042928;28;20942;-74
2021/10/20 07:02:46;;;;;;;16.20;9.20;;;10.50;99.90;;;11.17;100.00;97930.97;5042683;28;20544;-74
2021/10/20 07:05:15;;;;;;;17.57;9.60;;;10.50;99.90;;;11.23;100.00;97924.97;5047366;28;20536;-73
2021/10/20 07:07:43;;;;;;;14.30;9.23;;;10.60;99.90;;;11.32;100.00;97925.59;5040171;28;21022;-73
2021/10/20 07:10:12;;;;;;;16.80;10.13;;;10.70;99.90;;;11.37;100.00;97913.53;5046905;28;20875;-74
2021/10/20 07:12:40;;;;;;;13.27;9.10;;;10.80;99.90;;;11.42;100.00;97915.59;5050952;28;20504;-74
2021/10/20 07:15:10;;;;;;;18.40;9.37;;;10.80;99.90;;;11.46;100.00;97917.59;5048305;28;20617;-73
2021/10/20 07:17:40;;;;;;;14.17;9.60;;;10.90;99.90;;;11.52;100.00;97927.28;5049989;28;20577;-74
2021/10/20 07:20:10;;;;;;;17.50;9.70;;;11.00;99.90;;;11.56;100.00;97907.56;5050640;28;20499;-74
2021/10/20 07:22:39;;;;;;;19.40;11.10;;;11.00;99.90;;;11.60;100.00;97911.41;5049147;28;20534;-74
2021/10/20 07:25:11;;;;;;;13.90;9.67;;;11.00;99.90;;;11.65;100.00;97910.84;5051489;28;20445;-73
2021/10/20 07:27:40;;;;;;;17.60;9.60;;;11.10;99.90;;;11.69;100.00;97917.28;5050507;28;20518;-74
2021/10/20 07:30:11;;;;;;;15.87;9.63;;;11.10;99.90;;;11.74;100.00;97909.66;5052842;28;20493;-74
2021/10/20 07:32:42;;;;;;;14.70;9.07;;;11.20;99.90;;;11.80;100.00;97910.72;5047004;28;20449;-74
2021/10/20 07:35:13;;;;;;;24.00;10.20;;;11.30;99.90;;;11.84;100.00;97893.56;5041583;28;20503;-74
2021/10/20 07:37:43;;;;;;;17.00;10.20;;;11.30;99.90;;;11.88;100.00;97868.59;5038604;28;20525;-73
2021/10/20 07:40:15;;;;;;;16.93;9.37;;;11.30;99.90;;;11.92;100.00;97856.69;5043518;28;20451;-74
2021/10/20 07:42:45;;;;;;;17.20;10.70;;;11.40;99.90;;;11.98;100.00;97848.03;5044525;28;20951;-74
2021/10/20 07:45:16;;;;;;;13.70;9.13;;;11.50;99.90;;;12.03;100.00;97875.28;5045193;28;20514;-74
2021/10/20 07:47:47;;;;;;;17.33;10.80;;;11.50;99.90;;;12.09;100.00;97861.34;5039370;28;20475;-73
2021/10/20 07:50:18;;;;;;;15.07;9.40;;;11.60;99.90;;;12.16;100.00;97877.09;5051151;28;20449;-73
2021/10/20 07:52:49;;;;;;;12.40;8.87;;;11.60;99.90;;;12.26;100.00;97872.25;5054423;28;20453;-73
2021/10/20 07:55:22;;;;;;;15.70;9.33;;;11.80;99.90;;;12.35;100.00;97870.25;5050988;28;20494;-74
2021/10/20 07:57:54;;;;;;;17.20;9.53;;;11.80;99.90;;;12.39;100.00;97856.50;5048261;28;20537;-74
2021/10/20 08:00:24;;;;;;;17.13;9.50;;;11.90;99.90;;;12.44;100.00;97867.19;5050230;28;20449;-74
2021/10/20 08:02:55;;;;;;;12.00;8.90;;;11.90;99.90;;;12.54;100.00;97859.72;5041197;28;20487;-74
2021/10/20 08:05:24;;;;;;;14.53;8.90;;;12.10;99.90;;;12.59;100.00;97862.56;5054015;28;20471;-74
2021/10/20 08:07:53;;;;;;;19.40;10.10;;;12.10;99.90;;;12.65;100.00;97860.13;5053585;28;20453;-74
2021/10/20 08:10:26;;;;;;;11.57;9.07;;;12.20;99.90;;;12.70;100.00;97857.69;5046927;28;20516;-74
2021/10/20 08:12:57;;;;;;;24.10;8.73;;;12.20;99.90;;;12.76;100.00;97854.25;5054396;28;20441;-74
2021/10/20 08:15:29;;;;;;;14.40;8.87;;;12.30;99.90;;;12.84;100.00;97854.81;5055310;28;20816;-74
2021/10/20 08:18:03;;;;;;;14.23;9.20;;;12.30;99.90;;;12.92;100.00;97856.41;5054609;28;20510;-74
2021/10/20 08:20:34;;;;;;;15.10;9.53;;;12.40;99.90;;;13.00;100.00;97861.44;5058738;28;20453;-74
2021/10/20 08:23:05;;;;;;;13.30;9.50;;;12.40;99.90;;;13.04;100.00;97849.53;5057496;28;21086;-74
2021/10/20 08:25:36;;;;;;;13.23;7.97;;;12.50;99.90;;;13.11;100.00;97860.84;5058419;28;20933;-74
2021/10/20 08:28:06;;;;;;;14.47;8.60;;;12.60;99.90;;;13.19;100.00;97850.09;5058116;28;20480;-73
2021/10/20 08:30:36;;;;;;;12.73;8.80;;;12.80;99.90;;;13.26;100.00;97842.22;5058481;28;20451;-74
2021/10/20 08:33:07;;;;;;;16.23;8.53;;;12.80;99.90;;;13.30;100.00;97838.13;5054215;28;20857;-74
2021/10/20 08:35:37;;;;;;;10.90;8.00;;;12.90;99.90;;;13.36;100.00;97832.84;5064995;28;20484;-74
2021/10/20 08:38:06;;;;;;;11.83;8.80;;;12.80;99.90;;;13.42;100.00;97831.22;5057335;28;20498;-74
2021/10/20 08:40:38;;;;;;;9.60;7.67;;;12.90;99.90;;;13.47;100.00;97834.81;5053888;28;20445;-74
2021/10/20 08:43:07;;;;;;;11.83;7.67;;;13.00;99.90;;;13.53;100.00;97830.56;5057436;28;20999;-74
2021/10/20 08:45:35;;;;;;;10.93;7.50;;;13.10;99.90;;;13.57;100.00;97829.13;5054631;28;20468;-74
2021/10/20 08:48:06;;;;;;;12.90;8.10;;;13.10;99.90;;;13.59;100.00;97825.25;5056031;28;20892;-74
2021/10/20 08:50:36;;;;;;;11.13;7.70;;;13.10;99.90;;;13.64;100.00;97818.56;5047884;28;20441;-74
2021/10/20 08:53:06;;;;;;;10.23;8.03;;;13.10;99.90;;;13.68;100.00;97819.72;5067759;28;20501;-74
2021/10/20 08:55:35;;;;;;;19.10;8.10;;;13.20;99.90;;;13.71;100.00;97808.81;5057188;28;20814;-74
2021/10/20 08:58:04;;;;;;;12.73;7.43;;;13.20;99.90;;;13.75;100.00;97792.38;5057880;28;20488;-74
2021/10/20 09:00:32;;;;;;;13.07;8.03;;;13.30;99.90;;;13.80;100.00;97797.03;5052485;28;20540;-74
2021/10/20 09:03:01;;;;;;;13.10;7.50;;;13.30;99.90;;;13.82;100.00;97790.53;5054559;28;20865;-74
2021/10/20 09:05:31;;;;;;;12.53;7.90;;;13.40;99.90;;;13.86;100.00;97780.38;5058058;28;20495;-74
2021/10/20 09:08:00;;;;;;;8.37;6.47;;;13.40;99.90;;;13.89;100.00;97766.81;5054353;28;20953;-74
2021/10/20 09:10:31;;;;;;;10.30;7.43;;;13.50;99.90;;;13.93;100.00;97765.38;5050012;28;20457;-74
2021/10/20 09:13:02;;;;;;;9.90;7.17;;;13.50;99.90;;;13.94;100.00;97767.78;5054002;28;20441;-74
2021/10/20 09:15:34;;;;;;;8.70;7.43;;;13.50;99.90;;;13.97;100.00;97761.28;5048887;28;20449;-74
2021/10/20 09:18:06;;;;;;;9.17;6.53;;;13.40;99.90;;;14.05;100.00;97763.66;5051173;28;20492;-74
2021/10/20 09:20:38;;;;;;;12.30;6.50;;;13.60;99.90;;;14.10;100.00;97759.34;5041929;28;20449;-74
2021/10/20 09:23:11;;;;;;;9.80;6.00;;;13.60;99.90;;;14.15;100.00;97737.66;5054726;28;20449;-74
2021/10/20 09:25:45;;;;;;;10.70;7.50;;;13.60;99.90;;;14.20;100.00;97732.56;5047523;28;20453;-74
2021/10/20 09:28:21;;;;;;;9.10;6.50;;;13.70;99.90;;;14.25;100.00;97737.97;5059326;28;20449;-74
2021/10/20 09:30:51;;;;;;;8.40;6.57;;;13.80;99.90;;;14.32;100.00;97732.66;5056818;28;20469;-74
2021/10/20 09:33:20;;;;;;;8.20;6.57;;;13.90;99.90;;;14.36;100.00;97744.38;5053939;28;20449;-73
2021/10/20 09:35:51;;;;;;;10.57;7.30;;;13.90;99.90;;;14.42;100.00;97739.03;5054405;28;20857;-74
2021/10/20 09:38:21;;;;;;;9.27;7.13;;;13.90;99.90;;;14.46;100.00;97739.41;5058236;28;20562;-74
2021/10/20 09:40:50;;;;;;;10.47;6.23;;;13.90;99.90;;;14.55;100.00;97719.66;5052242;28;20445;-74
2021/10/20 09:43:27;;;;;;;7.90;5.30;;;14.10;99.90;;;14.57;100.00;97718.44;5058118;28;20484;-74
2021/10/20 09:45:56;;;;;;;10.40;6.57;;;14.10;99.90;;;14.63;100.00;97723.84;5048164;28;20445;-74
2021/10/20 09:48:27;;;;;;;10.60;6.63;;;14.20;99.90;;;14.68;100.00;97718.72;5055349;28;20472;-74
2021/10/20 09:51:04;;;;;;;10.60;6.73;;;14.20;99.90;;;14.70;100.00;97708.75;5060354;28;20495;-74
2021/10/20 09:53:35;;;;;;;10.80;6.50;;;14.30;99.90;;;14.76;100.00;97699.97;5040297;28;20500;-74
2021/10/20 09:56:22;;;;;;;10.07;6.20;;;14.30;99.90;;;14.75;100.00;97693.91;5059244;28;20980;-74
2021/10/20 09:58:52;;;;;;;12.33;6.23;;;14.30;99.90;;;14.75;100.00;97701.81;5058895;28;20496;-74
2021/10/20 10:01:22;;;;;;;13.23;5.80;;;14.30;99.90;;;14.77;100.00;97704.22;5050375;28;20998;-74
2021/10/20 10:03:52;;;;;;;12.43;6.60;;;14.30;99.90;;;14.78;100.00;97692.69;5028184;28;20454;-74
2021/10/20 10:06:22;;;;;;;11.53;6.77;;;14.30;99.90;;;14.82;100.00;97686.72;5035075;28;20445;-74
2021/10/20 10:08:50;;;;;;;7.53;6.07;;;14.40;99.90;;;14.89;100.00;97686.66;5042446;28;20449;-74
2021/10/20 10:11:20;;;;;;;9.17;6.20;;;14.50;99.90;;;14.94;100.00;97677.06;5032915;28;20504;-74
2021/10/20 10:13:54;;;;;;;8.50;5.50;;;14.60;99.90;;;14.98;100.00;97675.59;5041047;28;20441;-74
2021/10/20 10:16:27;;;;;;;7.30;5.47;;;14.60;99.90;;;15.06;100.00;97661.31;5043356;28;20472;-74
2021/10/20 10:19:00;;;;;;;17.90;5.80;;;14.70;99.90;;;15.10;100.00;97659.81;5034706;28;20493;-74
2021/10/20 10:21:36;;;;;;;7.47;5.70;;;14.70;99.90;;;15.16;100.00;97666.81;5040802;28;20554;-74
2021/10/20 10:24:16;;;;;;;7.83;5.77;;;14.70;99.90;;;15.20;100.00;97664.56;5041878;28;20457;-74